Time;durP1;ratioP1;P1;durP2;ratioP2;P2;SDS_P1;SDS_P2;PMS_P1;PMS_P2;Temp;Humidity;BMP_temperature;BMP_pressure;BME280_temperature;BME280_humidity;BME280_pressure;Samples;Min_cycle;Max_cycle;Signal;HPM_P1;HPM_P2
2022/09/01 00:02:05;;;;;;;2.85;1.48;;;;;;;16.83;100.00;100877.56;4949910;29;20042;-69
2022/09/01 00:04:31;;;;;;;3.15;1.55;;;;;;;17.00;100.00;100913.56;4950389;28;20050;-69
2022/09/01 00:06:58;;;;;;;5.63;1.88;;;;;;;16.94;100.00;100909.50;4948419;28;20486;-69
2022/09/01 00:09:24;;;;;;;3.35;1.60;;;;;;;16.90;100.00;100915.97;4931390;28;20035;-69
2022/09/01 00:11:51;;;;;;;4.57;1.55;;;;;;;16.83;100.00;100906.75;4943249;28;20027;-69
2022/09/01 00:14:28;;;;;;;4.82;1.40;;;;;;;16.78;100.00;100907.06;4932603;28;20027;-69
2022/09/01 00:16:54;;;;;;;4.75;1.15;;;;;;;16.71;100.00;100902.25;4950455;28;20114;-69
2022/09/01 00:19:21;;;;;;;4.28;1.92;;;;;;;16.72;100.00;100906.63;4950073;28;20118;-69
2022/09/01 00:21:46;;;;;;;5.78;1.40;;;;;;;16.46;100.00;100879.13;4950459;28;20039;-70
2022/09/01 00:24:14;;;;;;;3.35;1.60;;;;;;;16.66;100.00;100915.00;4950333;28;20504;-70
2022/09/01 00:26:40;;;;;;;5.93;1.65;;;;;;;16.64;100.00;100908.91;4949769;28;20038;-69
2022/09/01 00:29:06;;;;;;;3.10;1.40;;;;;;;16.63;100.00;100924.00;4950043;28;20032;-70
2022/09/01 00:31:32;;;;;;;4.10;1.48;;;;;;;16.61;100.00;100919.75;5007211;28;20035;-69
2022/09/01 00:33:58;;;;;;;4.47;1.70;;;;;;;16.59;100.00;100919.00;4932370;28;20368;-69
2022/09/01 00:36:23;;;;;;;3.40;1.30;;;;;;;16.56;100.00;100925.34;4946657;28;20035;-69
2022/09/01 00:38:49;;;;;;;3.28;1.17;;;;;;;16.51;100.00;100913.31;4951409;28;20451;-69
2022/09/01 00:41:17;;;;;;;4.45;1.92;;;;;;;16.51;100.00;100923.94;4944196;29;20542;-69
2022/09/01 00:43:52;;;;;;;3.83;1.63;;;;;;;16.45;100.00;100924.34;4952786;28;20031;-69
2022/09/01 00:46:20;;;;;;;4.35;1.45;;;;;;;16.43;100.00;100920.91;4943933;28;20027;-69
2022/09/01 00:49:17;;;;;;;3.08;1.30;;;;;;;16.39;100.00;100922.97;4952867;28;20040;-69
2022/09/01 00:51:46;;;;;;;2.63;1.15;;;;;;;16.34;100.00;100923.25;4943810;28;20186;-70
2022/09/01 00:54:17;;;;;;;9.70;1.98;;;;;;;16.27;100.00;100921.94;4942402;29;20547;-71
2022/09/01 00:56:42;;;;;;;4.55;1.90;;;;;;;16.13;100.00;100900.78;4953541;28;20023;-70
2022/09/01 00:59:10;;;;;;;6.45;1.65;;;;;;;16.04;100.00;100900.53;4961688;28;20141;-70
2022/09/01 01:01:35;;;;;;;3.03;1.38;;;;;;;16.11;100.00;100920.38;4952660;29;20543;-70
2022/09/01 01:04:13;;;;;;;3.67;1.33;;;;;;;16.10;100.00;100927.50;4966884;28;20036;-70
2022/09/01 01:06:49;;;;;;;4.30;1.73;;;;;;;16.05;100.00;100920.78;4931982;28;20110;-70
2022/09/01 01:09:18;;;;;;;2.92;1.27;;;;;;;16.00;100.00;100923.72;4932881;28;20490;-71
2022/09/01 01:11:46;;;;;;;2.25;1.02;;;;;;;15.89;100.00;100914.75;4943873;28;20066;-70
2022/09/01 01:14:14;;;;;;;6.13;1.83;;;;;;;15.90;100.00;100922.63;4952363;28;20474;-69
2022/09/01 01:16:43;;;;;;;2.72;1.38;;;;;;;15.85;100.00;100924.69;4952681;28;20031;-70
2022/09/01 01:25:12;;;;;;;3.85;1.95;;;;;;;15.73;100.00;100921.03;4937250;28;20085;-69
2022/09/01 01:27:41;;;;;;;5.88;2.00;;;;;;;15.68;100.00;100922.28;4952330;28;20484;-70
2022/09/01 01:30:09;;;;;;;3.97;1.55;;;;;;;15.63;100.00;100924.34;4948263;28;20028;-70
2022/09/01 01:32:42;;;;;;;3.15;1.63;;;;;;;15.58;100.00;100921.16;4952790;28;20473;-70
2022/09/01 01:35:13;;;;;;;5.82;1.60;;;;;;;15.60;100.00;100933.34;4951943;28;20061;-69
2022/09/01 01:37:44;;;;;;;4.40;1.70;;;;;;;15.54;100.00;100924.94;4951404;29;20118;-69
2022/09/01 01:40:14;;;;;;;3.90;1.30;;;;;;;15.58;100.00;100926.47;4966505;28;20031;-70
2022/09/01 01:42:43;;;;;;;3.10;1.30;;;;;;;15.38;100.00;100895.84;4935168;29;20037;-70
2022/09/01 01:45:11;;;;;;;3.72;1.45;;;;;;;15.47;100.00;100918.28;4951877;28;20081;-70
2022/09/01 01:47:36;;;;;;;4.30;1.42;;;;;;;15.48;100.00;100925.28;4952285;28;20034;-70
2022/09/01 01:50:08;;;;;;;4.72;1.75;;;;;;;15.41;100.00;100918.66;4939051;29;20035;-70
2022/09/01 01:52:34;;;;;;;4.63;1.40;;;;;;;15.41;100.00;100930.09;4935708;28;20035;-70
2022/09/01 01:55:01;;;;;;;2.95;1.50;;;;;;;15.27;100.00;100917.72;4951377;29;20419;-70
2022/09/01 01:57:31;;;;;;;5.38;1.35;;;;;;;15.30;100.00;100917.53;4951716;28;20027;-70
2022/09/01 01:59:57;;;;;;;4.63;1.80;;;;;;;14.99;100.00;100875.34;4950847;28;20034;-70
2022/09/01 02:02:22;;;;;;;3.97;1.88;;;;;;;15.30;100.00;100938.72;4944565;28;20039;-70
2022/09/01 02:04:48;;;;;;;2.80;1.27;;;;;;;15.17;100.00;100921.88;4947518;28;20042;-70
2022/09/01 02:07:13;;;;;;;3.00;1.25;;;;;;;15.23;100.00;100926.78;4966001;28;20023;-69
2022/09/01 02:09:42;;;;;;;5.55;1.58;;;;;;;15.13;100.00;100915.06;4940760;29;20027;-70
2022/09/01 02:12:08;;;;;;;2.90;1.73;;;;;;;15.21;100.00;100928.66;4951135;28;20116;-70
2022/09/01 02:14:33;;;;;;;3.05;1.35;;;;;;;15.16;100.00;100925.47;4959596;28;20062;-70
2022/09/01 02:17:00;;;;;;;3.13;1.50;;;;;;;15.13;100.00;100936.25;4948478;28;20110;-70
2022/09/01 02:19:26;;;;;;;4.28;1.35;;;;;;;14.87;100.00;100897.22;4951216;28;20055;-70
2022/09/01 02:21:54;;;;;;;7.05;1.65;;;;;;;15.08;100.00;100932.16;4951127;29;20442;-70
2022/09/01 02:24:20;;;;;;;7.82;1.52;;;;;;;15.02;100.00;100932.53;4951441;28;20038;-70
2022/09/01 02:26:47;;;;;;;3.63;1.52;;;;;;;15.00;100.00;100935.28;4934870;28;20031;-70
2022/09/01 02:29:31;;;;;;;3.42;1.10;;;;;;;14.93;100.00;100933.94;4952003;28;20034;-70
2022/09/01 02:31:56;;;;;;;4.70;1.85;;;;;;;14.76;100.00;100902.34;4998347;28;20035;-70
2022/09/01 02:34:23;;;;;;;3.38;1.60;;;;;;;14.93;100.00;100927.78;4946088;28;20028;-70
2022/09/01 02:36:51;;;;;;;3.53;1.77;;;;;;;14.91;100.00;100933.16;4932723;28;20027;-70
2022/09/01 02:39:22;;;;;;;4.20;1.80;;;;;;;14.90;100.00;100928.81;4934511;28;20482;-70
2022/09/01 02:41:48;;;;;;;5.43;1.60;;;;;;;14.89;100.00;100926.25;4950828;28;20465;-70
2022/09/01 02:44:14;;;;;;;3.33;1.50;;;;;;;14.87;100.00;100923.69;4951598;28;20110;-70
2022/09/01 02:46:44;;;;;;;5.43;1.83;;;;;;;14.86;100.00;100918.50;4951131;28;20034;-69
2022/09/01 02:49:16;;;;;;;2.55;1.13;;;;;;;14.79;100.00;100921.53;4932370;28;20101;-69
2022/09/01 02:51:43;;;;;;;4.68;1.58;;;;;;;14.82;100.00;100921.34;4951109;29;20101;-70
2022/09/01 02:54:09;;;;;;;5.85;1.52;;;;;;;14.83;100.00;100922.19;4950897;28;20114;-70
2022/09/01 02:56:35;;;;;;;2.58;1.50;;;;;;;14.78;100.00;100916.31;4949439;28;20055;-70
2022/09/01 02:59:01;;;;;;;4.30;1.63;;;;;;;14.71;100.00;100896.44;4951098;28;20069;-70
2022/09/01 03:01:30;;;;;;;4.15;1.90;;;;;;;14.78;100.00;100921.59;4932565;28;20031;-70
2022/09/01 03:03:59;;;;;;;5.15;1.40;;;;;;;14.77;100.00;100919.88;4950744;29;20031;-70
2022/09/01 03:06:25;;;;;;;2.97;1.20;;;;;;;14.75;100.00;100913.84;4947656;28;20042;-70
2022/09/01 03:08:58;;;;;;;2.88;1.17;;;;;;;14.71;100.00;100907.03;4949695;29;20405;-70
2022/09/01 03:11:23;;;;;;;2.38;1.13;;;;;;;14.68;100.00;100912.50;4950339;28;20034;-69
2022/09/01 03:13:49;;;;;;;4.43;1.77;;;;;;;14.70;100.00;100915.94;4939065;28;20031;-69
2022/09/01 03:16:15;;;;;;;3.55;1.70;;;;;;;14.63;100.00;100906.66;4951433;28;20031;-69
2022/09/01 03:18:41;;;;;;;3.80;2.20;;;;;;;14.65;100.00;100913.53;4950910;28;20476;-70
2022/09/01 03:21:08;;;;;;;6.88;2.28;;;;;;;14.59;100.00;100907.75;4952012;28;20549;-70
2022/09/01 03:23:36;;;;;;;4.75;1.70;;;;;;;14.52;100.00;100904.63;4950721;28;20027;-70
2022/09/01 03:26:02;;;;;;;2.65;1.60;;;;;;;14.49;100.00;100899.50;4937264;28;20052;-70
2022/09/01 03:28:28;;;;;;;4.47;2.00;;;;;;;14.55;100.00;100908.88;4950660;28;20074;-70
2022/09/01 03:30:55;;;;;;;5.20;1.83;;;;;;;14.32;100.00;100876.66;4949102;28;20103;-70
2022/09/01 03:33:23;;;;;;;4.50;1.92;;;;;;;14.49;100.00;100902.16;4950406;28;20062;-70
2022/09/01 03:35:49;;;;;;;2.90;1.50;;;;;;;14.46;100.00;100902.34;4950683;29;20036;-70
2022/09/01 03:38:22;;;;;;;4.03;2.05;;;;;;;14.47;100.00;100919.03;4933166;28;20027;-70
2022/09/01 03:40:51;;;;;;;6.35;1.85;;;;;;;14.41;100.00;100912.31;4949925;29;20482;-70
2022/09/01 03:43:18;;;;;;;5.97;2.20;;;;;;;14.39;100.00;100914.22;4950935;29;20027;-70
2022/09/01 03:45:45;;;;;;;5.00;1.90;;;;;;;14.37;100.00;100913.44;4950488;28;20114;-70
2022/09/01 03:48:11;;;;;;;4.53;1.50;;;;;;;14.34;100.00;100903.03;4950197;28;20505;-70
2022/09/01 03:50:45;;;;;;;4.18;1.83;;;;;;;14.32;100.00;100907.53;4950773;29;20051;-70
2022/09/01 03:53:19;;;;;;;3.60;1.60;;;;;;;14.29;100.00;100903.28;4949809;28;20212;-70
2022/09/01 03:55:48;;;;;;;6.53;2.35;;;;;;;14.29;100.00;100911.22;4955964;28;20038;-70
2022/09/01 03:58:17;;;;;;;7.85;1.67;;;;;;;14.26;100.00;100910.53;4951369;28;20035;-70
2022/09/01 04:00:46;;;;;;;6.88;1.77;;;;;;;14.22;100.00;100915.16;4950474;28;20058;-70
2022/09/01 04:03:12;;;;;;;5.47;1.85;;;;;;;14.16;100.00;100899.59;4950284;28;20043;-70
2022/09/01 04:05:41;;;;;;;4.60;1.98;;;;;;;14.19;100.00;100906.53;4951842;28;20023;-70
2022/09/01 04:08:09;;;;;;;3.35;1.63;;;;;;;14.15;100.00;100899.72;4952304;28;20028;-70
2022/09/01 04:10:37;;;;;;;4.95;2.03;;;;;;;14.15;100.00;100908.50;4953584;28;20027;-70
2022/09/01 04:13:03;;;;;;;3.55;1.85;;;;;;;14.16;100.00;100904.91;4935909;29;20043;-70
2022/09/01 04:15:31;;;;;;;2.45;1.50;;;;;;;14.12;100.00;100908.69;4926604;28;20693;-69
2022/09/01 04:18:09;;;;;;;3.85;2.08;;;;;;;14.09;100.00;100903.53;4943116;28;20427;-70
2022/09/01 04:20:47;;;;;;;2.45;1.42;;;;;;;14.08;100.00;100912.44;4953410;29;20034;-70
2022/09/01 04:23:25;;;;;;;4.85;2.35;;;;;;;14.08;100.00;100915.06;4952515;28;20053;-69
2022/09/01 04:26:08;;;;;;;6.10;1.90;;;;;;;14.05;100.00;100907.31;4952196;28;20039;-70
2022/09/01 04:28:52;;;;;;;7.85;1.80;;;;;;;14.03;100.00;100903.88;4944376;28;21386;-70
2022/09/01 04:31:20;;;;;;;7.43;2.23;;;;;;;14.03;100.00;100910.97;4936310;29;20031;-70
2022/09/01 04:33:48;;;;;;;5.32;1.95;;;;;;;14.01;100.00;100916.34;4920571;29;20051;-70
2022/09/01 04:36:18;;;;;;;2.92;1.70;;;;;;;13.93;100.00;100910.63;4951517;28;20118;-70
2022/09/01 04:38:44;;;;;;;3.70;2.17;;;;;;;13.87;100.00;100894.25;4935756;29;20116;-70
2022/09/01 04:41:16;;;;;;;3.25;2.13;;;;;;;13.93;100.00;100902.69;4945594;28;20054;-70
2022/09/01 04:43:43;;;;;;;6.88;2.03;;;;;;;13.94;100.00;100914.13;4950942;28;20063;-70
2022/09/01 04:46:13;;;;;;;5.63;2.30;;;;;;;13.83;100.00;100897.09;4950881;29;20500;-69
2022/09/01 04:48:41;;;;;;;5.00;2.15;;;;;;;13.91;100.00;100911.66;4937859;29;20549;-69
2022/09/01 04:51:09;;;;;;;4.32;2.13;;;;;;;13.89;100.00;100911.72;4950137;29;20058;-69
2022/09/01 04:53:38;;;;;;;4.55;2.15;;;;;;;13.87;100.00;100918.91;4951891;28;20381;-69
2022/09/01 04:56:05;;;;;;;6.22;2.67;;;;;;;13.85;100.00;100915.50;4929857;28;20031;-69
2022/09/01 04:58:31;;;;;;;5.15;2.22;;;;;;;13.85;100.00;100915.50;4952668;28;20371;-69
2022/09/01 05:00:59;;;;;;;3.78;1.98;;;;;;;13.46;100.00;100854.28;4952278;28;20035;-69
2022/09/01 05:03:24;;;;;;;5.88;2.55;;;;;;;13.79;100.00;100910.53;4948235;29;20110;-69
2022/09/01 05:05:52;;;;;;;4.32;2.35;;;;;;;13.80;100.00;100917.53;4951834;28;20106;-69
2022/09/01 05:08:19;;;;;;;5.82;2.53;;;;;;;13.80;100.00;100906.97;4944000;29;20031;-69
2022/09/01 05:10:54;;;;;;;6.57;2.42;;;;;;;13.80;100.00;100917.53;4947766;28;20035;-69
2022/09/01 05:13:21;;;;;;;;;;;;;;;13.78;100.00;100908.84;4946926;29;20031;-69
2022/09/01 05:15:47;;;;;;;3.67;2.08;;;;;;;13.64;100.00;100879.69;4944798;28;19919;-70
2022/09/01 05:18:26;;;;;;;4.88;2.13;;;;;;;13.76;100.00;100908.91;4951391;28;20054;-69
2022/09/01 05:20:53;;;;;;;4.35;2.45;;;;;;;13.79;100.00;100913.19;4952907;28;20031;-70
2022/09/01 05:23:19;;;;;;;5.18;2.38;;;;;;;13.82;100.00;100910.41;4952356;28;20516;-70
2022/09/01 05:25:48;;;;;;;5.55;2.10;;;;;;;13.84;100.00;100916.44;4967190;28;20031;-70
2022/09/01 05:28:14;;;;;;;4.80;2.70;;;;;;;13.89;100.00;100919.66;4951019;28;20142;-70
2022/09/01 05:30:40;;;;;;;4.13;2.60;;;;;;;13.93;100.00;100918.56;4952260;29;20043;-69
2022/09/01 05:33:10;;;;;;;4.00;2.50;;;;;;;13.94;100.00;100907.06;4952087;28;20504;-69
2022/09/01 05:35:42;;;;;;;4.70;2.90;;;;;;;13.96;100.00;100910.44;4948559;28;20031;-70
2022/09/01 05:38:11;;;;;;;5.63;2.65;;;;;;;13.99;100.00;100907.63;4939092;28;20032;-70
2022/09/01 05:40:39;;;;;;;5.95;2.92;;;;;;;14.03;100.00;100917.09;4934863;28;20525;-69
2022/09/01 05:43:06;;;;;;;4.05;2.55;;;;;;;14.07;100.00;100921.28;5007707;28;20071;-69
2022/09/01 05:45:35;;;;;;;4.57;2.20;;;;;;;13.98;100.00;100900.66;4951860;29;20027;-69
2022/09/01 05:48:02;;;;;;;6.05;2.42;;;;;;;14.13;100.00;100922.72;4952287;28;20031;-70
2022/09/01 05:50:27;;;;;;;4.28;2.38;;;;;;;14.15;100.00;100921.72;4952176;28;20047;-69
2022/09/01 05:52:52;;;;;;;5.30;2.65;;;;;;;14.14;100.00;100920.00;4956337;28;20158;-69
2022/09/01 05:55:18;;;;;;;5.22;2.67;;;;;;;14.09;100.00;100908.81;4932962;28;20399;-69
2022/09/01 05:57:46;;;;;;;4.05;2.28;;;;;;;14.18;100.00;100925.97;4934991;28;20039;-69
2022/09/01 06:00:13;;;;;;;4.40;2.92;;;;;;;14.21;100.00;100931.06;4936207;28;20031;-70
2022/09/01 06:02:39;;;;;;;4.25;2.42;;;;;;;14.00;100.00;100897.94;4942036;28;20047;-72
2022/09/01 06:05:07;;;;;;;4.35;2.63;;;;;;;14.16;100.00;100912.81;5004580;28;20067;-71
2022/09/01 06:07:36;;;;;;;6.20;3.10;;;;;;;14.30;100.00;100931.41;4935394;28;20032;-69
2022/09/01 06:10:02;;;;;;;5.40;2.80;;;;;;;14.32;100.00;100941.91;4939523;28;20518;-69
2022/09/01 06:12:28;;;;;;;5.82;3.08;;;;;;;14.28;100.00;100925.38;4935615;28;20043;-69
2022/09/01 06:14:54;;;;;;;4.55;2.92;;;;;;;14.36;100.00;100937.34;4935586;28;20481;-69
2022/09/01 06:17:23;;;;;;;5.78;2.65;;;;;;;14.40;100.00;100944.97;4941529;28;20031;-69
2022/09/01 06:19:51;;;;;;;4.22;2.55;;;;;;;14.45;100.00;100939.44;4940151;28;20040;-69
2022/09/01 06:22:18;;;;;;;8.55;3.13;;;;;;;14.48;100.00;100944.53;4942122;28;20032;-70
2022/09/01 06:24:44;;;;;;;5.20;3.05;;;;;;;14.48;100.00;100941.91;4951025;28;20027;-69
2022/09/01 06:27:10;;;;;;;5.88;3.00;;;;;;;14.47;100.00;100945.47;4951210;28;20031;-70
2022/09/01 06:29:38;;;;;;;4.82;2.90;;;;;;;14.23;100.00;100900.13;4950927;28;20397;-70
2022/09/01 06:32:09;;;;;;;6.25;2.85;;;;;;;14.50;100.00;100945.34;4951261;29;20031;-70
2022/09/01 06:34:35;;;;;;;11.95;3.25;;;;;;;14.54;100.00;100946.84;4947324;28;20040;-69
2022/09/01 06:37:01;;;;;;;8.50;3.13;;;;;;;14.58;100.00;100948.38;4941579;28;20032;-69
2022/09/01 06:39:26;;;;;;;7.25;2.92;;;;;;;14.52;100.00;100924.94;4951598;28;20030;-69
2022/09/01 06:41:52;;;;;;;6.10;3.90;;;;;;;14.59;100.00;100939.50;4950579;28;20050;-70
2022/09/01 06:44:21;;;;;;;6.20;3.25;;;;;;;14.68;100.00;100946.88;4951190;28;20023;-69
2022/09/01 06:46:50;;;;;;;11.35;4.25;;;;;;;14.71;100.00;100947.56;4947532;28;20039;-69
2022/09/01 06:49:15;;;;;;;9.05;4.13;;;;;;;14.73;100.00;100953.63;4950629;28;20066;-70
2022/09/01 06:51:41;;;;;;;5.13;3.63;;;;;;;14.77;100.00;100954.28;4951463;28;20078;-69
2022/09/01 06:54:06;;;;;;;5.15;3.70;;;;;;;14.79;100.00;100952.41;4951014;28;20581;-69
2022/09/01 06:56:33;;;;;;;7.43;4.15;;;;;;;14.82;100.00;100952.22;4937513;28;20441;-69
2022/09/01 06:59:00;;;;;;;7.63;3.20;;;;;;;14.88;100.00;100957.16;4956793;28;20031;-69
2022/09/01 07:01:26;;;;;;;5.70;3.10;;;;;;;14.93;100.00;100954.25;4969709;28;20033;-69
2022/09/01 07:03:52;;;;;;;5.93;3.33;;;;;;;14.64;100.00;100892.47;4947735;28;20390;-69
2022/09/01 07:06:23;;;;;;;12.48;3.35;;;;;;;15.03;100.00;100945.69;4950731;28;20038;-69
2022/09/01 07:08:49;;;;;;;11.95;3.50;;;;;;;15.15;100.00;100955.50;4950050;28;20035;-69
2022/09/01 07:11:24;;;;;;;5.50;3.33;;;;;;;15.21;100.00;100944.53;4950592;28;20033;-69
2022/09/01 07:13:52;;;;;;;8.50;3.35;;;;;;;15.30;100.00;100959.91;4949744;29;20389;-68
2022/09/01 07:16:20;;;;;;;5.72;3.25;;;;;;;15.43;100.00;100952.06;4950857;28;20063;-69
2022/09/01 07:18:46;;;;;;;4.80;3.05;;;;;;;15.52;100.00;100953.31;4951162;28;20039;-69
2022/09/01 07:21:12;;;;;;;6.60;3.50;;;;;;;15.63;100.00;100961.44;4943416;28;20030;-68
2022/09/01 07:23:37;;;;;;;7.03;3.92;;;;;;;15.72;100.00;100960.88;4940645;28;20046;-69
2022/09/01 07:26:05;;;;;;;6.05;3.58;;;;;;;15.80;100.00;100962.09;4948611;29;20122;-68
2022/09/01 07:28:31;;;;;;;3.95;2.83;;;;;;;15.90;100.00;100956.22;4939187;28;20061;-69
2022/09/01 07:30:57;;;;;;;4.47;2.92;;;;;;;16.00;100.00;100960.84;4950480;28;20051;-69
2022/09/01 07:33:23;;;;;;;5.45;3.60;;;;;;;16.09;100.00;100956.72;4950088;28;20026;-69
2022/09/01 07:35:52;;;;;;;6.18;3.45;;;;;;;16.18;100.00;100957.03;4950705;28;20077;-68
2022/09/01 07:38:18;;;;;;;8.10;2.92;;;;;;;16.21;100.00;100950.66;4950787;28;20027;-68
2022/09/01 07:40:44;;;;;;;5.57;3.38;;;;;;;16.34;100.00;100959.53;4951864;28;20041;-70
2022/09/01 07:43:36;;;;;;;7.07;2.85;;;;;;;16.44;100.00;100965.94;4953143;28;20039;-68
2022/09/01 07:46:04;;;;;;;4.05;2.60;;;;;;;16.44;100.00;100950.00;4954194;28;20073;-69
2022/09/01 07:48:29;;;;;;;6.65;2.63;;;;;;;16.61;100.00;100967.50;4936279;28;20023;-69
2022/09/01 07:50:56;;;;;;;7.05;3.15;;;;;;;16.45;100.00;100929.66;4953659;28;20098;-69
2022/09/01 07:53:25;;;;;;;5.43;2.88;;;;;;;16.77;100.00;100974.34;4953267;28;20027;-69
2022/09/01 07:55:52;;;;;;;8.82;2.95;;;;;;;16.84;100.00;100967.69;4953899;28;20035;-69
2022/09/01 07:58:20;;;;;;;6.63;2.92;;;;;;;16.93;100.00;100952.09;4952727;28;20023;-69
2022/09/01 08:00:48;;;;;;;5.30;2.65;;;;;;;16.99;100.00;100954.34;4953232;28;20033;-69
2022/09/01 08:03:14;;;;;;;6.28;2.85;;;;;;;17.13;100.00;100965.72;4953233;29;20035;-69
2022/09/01 08:05:40;;;;;;;14.60;2.80;;;;;;;17.21;100.00;100962.53;4953251;28;20023;-68
2022/09/01 08:08:06;;;;;;;7.60;3.38;;;;;;;17.27;100.00;100962.94;4951610;28;20097;-68
2022/09/01 08:10:31;;;;;;;6.70;3.63;;;;;;;17.30;100.00;100961.91;4953093;28;20450;-68
2022/09/01 08:12:57;;;;;;;7.07;3.10;;;;;;;17.41;100.00;100969.13;4953239;29;20047;-68
2022/09/01 08:15:23;;;;;;;4.55;2.90;;;;;;;17.48;100.00;100965.06;4937362;28;20039;-68
2022/09/01 08:17:48;;;;;;;7.85;2.55;;;;;;;17.54;100.00;100967.34;4940513;28;20068;-69
2022/09/01 08:20:14;;;;;;;4.93;2.42;;;;;;;17.56;100.00;100952.16;4953149;29;20023;-68
2022/09/01 08:22:39;;;;;;;6.05;3.15;;;;;;;17.67;100.00;100965.53;4952783;28;20054;-68
2022/09/01 08:25:08;;;;;;;6.85;3.38;;;;;;;17.75;100.00;100964.03;4938532;28;20400;-69
2022/09/01 08:27:37;;;;;;;3.75;2.47;;;;;;;17.83;100.00;100960.84;4946024;28;20027;-68
2022/09/01 08:30:05;;;;;;;4.88;2.35;;;;;;;17.93;100.00;100956.56;4931909;28;20077;-68
2022/09/01 08:32:31;;;;;;;5.85;2.38;;;;;;;18.02;100.00;100955.88;4953225;28;20031;-68
2022/09/01 08:34:56;;;;;;;4.18;2.10;;;;;;;18.03;100.00;100957.59;4945807;28;20062;-68
2022/09/01 08:37:22;;;;;;;4.85;2.47;;;;;;;18.13;100.00;100963.94;4952945;28;20031;-68
2022/09/01 08:39:48;;;;;;;4.47;2.70;;;;;;;18.22;100.00;100968.59;4952838;28;20035;-68
2022/09/01 08:42:49;;;;;;;6.28;2.53;;;;;;;18.28;100.00;100962.81;4952972;28;20487;-69
2022/09/01 08:45:44;;;;;;;4.53;2.03;;;;;;;18.35;100.00;100973.91;5018974;28;20046;-68
2022/09/01 08:48:15;;;;;;;;;;;;;;;18.42;100.00;100968.97;4937798;28;20095;-69
2022/09/01 08:50:43;;;;;;;4.20;2.08;;;;;;;18.34;100.00;100941.09;4952705;28;19922;-68
2022/09/01 08:53:28;;;;;;;4.65;2.42;;;;;;;18.53;100.00;100955.72;5018232;28;20023;-68
2022/09/01 08:55:57;;;;;;;4.60;2.53;;;;;;;18.49;100.00;100938.25;5020048;28;20069;-68
2022/09/01 08:58:24;;;;;;;4.95;2.55;;;;;;;18.66;100.00;100952.03;5005998;28;20039;-67
2022/09/01 09:01:00;;;;;;;3.88;2.17;;;;;;;18.83;100.00;100966.75;4960146;28;20077;-68
2022/09/01 09:03:35;;;;;;;6.38;2.67;;;;;;;18.93;100.00;100959.75;4964931;28;20027;-68
2022/09/01 09:06:06;;;;;;;;;;;;;;;19.01;100.00;100962.69;4953164;28;20388;-67
2022/09/01 09:08:50;;;;;;;3.72;2.03;;;;;;;19.09;100.00;100960.31;4952761;28;19918;-67
2022/09/01 09:11:30;;;;;;;6.68;2.55;;;;;;;19.14;100.00;100960.78;4952243;28;20034;-68
2022/09/01 09:14:06;;;;;;;5.43;2.53;;;;;;;19.17;100.00;100951.69;4941111;28;20046;-68
2022/09/01 09:16:38;;;;;;;7.75;2.97;;;;;;;19.24;100.00;100961.78;4944839;28;20042;-68
2022/09/01 09:19:09;;;;;;;2.83;1.90;;;;;;;19.33;100.00;100958.41;4934657;29;20512;-69
2022/09/01 09:21:37;;;;;;;6.93;2.35;;;;;;;19.42;100.00;100953.38;4935423;28;20035;-67
2022/09/01 09:24:45;;;;;;;6.65;2.17;;;;;;;19.50;100.00;100953.63;4951210;28;20035;-67
2022/09/01 09:27:22;;;;;;;3.88;2.33;;;;;;;19.59;100.00;100953.75;4942895;28;20069;-67
2022/09/01 09:29:51;;;;;;;4.50;2.20;;;;;;;19.67;100.00;100955.81;4945249;29;20039;-67
2022/09/01 09:32:17;;;;;;;3.45;1.75;;;;;;;19.73;100.00;100950.00;4931770;28;20114;-68
2022/09/01 09:34:42;;;;;;;4.15;2.00;;;;;;;19.73;100.00;100942.00;4939259;28;20085;-68
2022/09/01 09:37:24;;;;;;;10.13;1.85;;;;;;;19.85;100.00;100949.00;4940594;29;20047;-69
2022/09/01 09:40:25;;;;;;;3.70;1.90;;;;;;;19.96;100.00;100940.13;4939336;28;20073;-69
2022/09/01 09:42:53;;;;;;;5.80;2.25;;;;;;;20.04;100.00;100938.53;4927894;28;20091;-68
2022/09/01 09:45:28;;;;;;;3.75;1.85;;;;;;;20.07;100.00;100932.13;4949867;28;20058;-69
2022/09/01 09:47:55;;;;;;;3.17;1.60;;;;;;;20.17;100.00;100941.94;4922702;28;20035;-68
2022/09/01 09:50:29;;;;;;;3.20;2.00;;;;;;;20.22;100.00;100934.38;4938455;28;20023;-70
2022/09/01 09:53:10;;;;;;;2.95;1.90;;;;;;;20.27;100.00;100924.22;4936296;28;20101;-69
2022/09/01 09:55:35;;;;;;;3.58;1.98;;;;;;;20.12;100.00;100904.09;4942818;28;20537;-69
2022/09/01 09:58:09;;;;;;;4.75;1.98;;;;;;;20.42;100.00;100926.56;4944552;28;20150;-69
2022/09/01 10:00:35;;;;;;;3.97;1.98;;;;;;;20.47;100.00;100935.06;4951478;28;20027;-69
2022/09/01 10:03:06;;;;;;;4.88;2.20;;;;;;;20.55;100.00;100913.94;4950289;28;20435;-69
2022/09/01 10:05:36;;;;;;;4.45;1.48;;;;;;;20.65;100.00;100912.19;4950978;28;20034;-69
2022/09/01 10:08:03;;;;;;;7.53;2.15;;;;;;;20.72;100.00;100903.50;4952421;28;20027;-69
2022/09/01 10:10:49;;;;;;;3.85;1.50;;;;;;;20.86;100.00;100915.69;4941790;28;20019;-68
2022/09/01 10:13:20;;;;;;;2.92;1.17;;;;;;;20.69;100.00;100885.06;4948140;28;20053;-68
2022/09/01 10:15:48;;;;;;;2.60;1.35;;;;;;;20.94;100.00;100915.91;4951005;28;20034;-68
2022/09/01 10:18:17;;;;;;;2.85;1.40;;;;;;;21.04;100.00;100913.28;4927880;29;20043;-68
2022/09/01 10:20:54;;;;;;;2.75;1.20;;;;;;;21.08;100.00;100904.88;4934676;28;20077;-68
2022/09/01 10:23:19;;;;;;;6.50;1.67;;;;;;;21.09;100.00;100900.41;4922739;29;20061;-68
2022/09/01 10:25:46;;;;;;;4.40;1.52;;;;;;;21.12;97.74;100884.97;4951489;29;20450;-69
2022/09/01 10:28:15;;;;;;;2.95;1.40;;;;;;;21.28;100.00;100901.38;4950796;28;20031;-68
2022/09/01 10:30:44;;;;;;;2.88;1.48;;;;;;;21.40;98.60;100905.66;4951129;28;20114;-68
2022/09/01 10:33:11;;;;;;;3.55;1.45;;;;;;;21.39;97.30;100893.25;4932888;29;20485;-68
2022/09/01 10:35:41;;;;;;;3.53;1.50;;;;;;;21.51;95.70;100902.03;4951336;28;20076;-68
2022/09/01 10:38:10;;;;;;;2.92;1.15;;;;;;;21.64;95.38;100912.50;4931583;28;20381;-68
2022/09/01 10:40:39;;;;;;;2.75;1.55;;;;;;;21.67;96.75;100898.84;4932273;28;20066;-69
2022/09/01 10:43:24;;;;;;;2.47;1.13;;;;;;;21.72;92.19;100910.84;4949025;28;20035;-68
2022/09/01 10:45:49;;;;;;;6.97;1.17;;;;;;;21.66;91.57;100881.97;4950391;28;20067;-68
2022/09/01 10:48:20;;;;;;;4.53;1.75;;;;;;;21.79;88.91;100897.78;4956145;28;20056;-68
2022/09/01 10:50:55;;;;;;;2.75;1.40;;;;;;;21.79;89.29;100890.59;4944788;28;20055;-69
2022/09/01 10:53:51;;;;;;;6.55;1.23;;;;;;;21.97;93.00;100892.66;4945567;28;20121;-68
2022/09/01 10:56:35;;;;;;;4.78;1.33;;;;;;;22.06;86.97;100887.31;4954292;28;20051;-68
2022/09/01 10:59:23;;;;;;;3.95;1.50;;;;;;;22.19;89.26;100893.25;5009270;28;20161;-68
2022/09/01 11:01:48;;;;;;;3.08;1.10;;;;;;;22.25;87.34;100887.31;4938080;28;20081;-69
2022/09/01 11:04:16;;;;;;;2.60;1.20;;;;;;;22.39;84.81;100894.94;4951050;28;20044;-68
2022/09/01 11:06:57;;;;;;;4.05;1.30;;;;;;;22.53;84.17;100892.84;4946807;28;20397;-73
2022/09/01 11:09:36;;;;;;;5.97;1.35;;;;;;;22.61;83.21;100876.91;4951142;29;20046;-69
2022/09/01 11:12:36;;;;;;;3.38;1.33;;;;;;;22.74;83.66;100891.72;4950030;29;20053;-68
2022/09/01 11:15:05;;;;;;;4.57;1.42;;;;;;;22.83;79.18;100879.28;5015543;28;20085;-68
2022/09/01 11:17:58;;;;;;;3.08;1.20;;;;;;;22.81;77.44;100878.59;4965707;28;20043;-68
2022/09/01 11:20:27;;;;;;;3.67;1.17;;;;;;;22.89;77.95;100889.44;4949392;28;20071;-68
2022/09/01 11:22:55;;;;;;;4.10;1.42;;;;;;;23.03;79.36;100882.78;4949589;28;20047;-69
2022/09/01 11:25:42;;;;;;;5.60;1.67;;;;;;;23.18;76.37;100884.88;4950501;28;20041;-68
2022/09/01 11:28:13;;;;;;;8.23;1.42;;;;;;;23.37;79.78;100874.06;4950319;28;20039;-68
2022/09/01 11:30:54;;;;;;;3.53;1.67;;;;;;;23.49;81.83;100873.91;4948831;28;20027;-68
2022/09/01 11:33:49;;;;;;;6.10;1.55;;;;;;;23.45;78.18;100878.72;4936294;28;20404;-68
2022/09/01 11:36:24;;;;;;;4.43;1.40;;;;;;;23.69;79.58;100876.34;4943949;28;20558;-69
2022/09/01 11:39:17;;;;;;;2.92;1.20;;;;;;;24.03;78.56;100868.50;4950031;29;20677;-69